Time;durP1;ratioP1;P1;durP2;ratioP2;P2;SDS_P1;SDS_P2;PMS_P1;PMS_P2;Temp;Humidity;BMP_temperature;BMP_pressure;BME280_temperature;BME280_humidity;BME280_pressure;Samples;Min_cycle;Max_cycle;Signal;HPM_P1;HPM_P2
2021/12/20 00:00:58;;;;;;;21.10;2.67;;;;;;;;;;4986645;28;20062;-83
2021/12/20 00:03:25;;;;;;;14.32;2.53;;;;;;;;;;4967396;28;20479;-82
2021/12/20 00:05:51;;;;;;;11.20;3.03;;;;;;;;;;4979978;28;20058;-82
2021/12/20 00:08:18;;;;;;;18.40;1.98;;;;;;;;;;4962508;28;21670;-83
2021/12/20 00:10:44;;;;;;;16.90;2.63;;;;;;;;;;4969770;28;20106;-83
2021/12/20 00:13:10;;;;;;;17.20;2.10;;;;;;;;;;4966659;28;20593;-83
2021/12/20 00:15:37;;;;;;;15.27;2.40;;;;;;;;;;4980925;28;20090;-82
2021/12/20 00:18:03;;;;;;;13.93;2.63;;;;;;;;;;4970581;28;20058;-83
2021/12/20 00:20:30;;;;;;;19.00;2.33;;;;;;;;;;4983982;28;20086;-82
2021/12/20 00:22:56;;;;;;;14.82;2.72;;;;;;;;;;4971705;28;20130;-82
2021/12/20 00:25:23;;;;;;;19.40;2.72;;;;;;;;;;4973194;28;20050;-84
2021/12/20 00:27:49;;;;;;;17.02;3.33;;;;;;;;;;4973235;28;20087;-83
2021/12/20 00:30:17;;;;;;;11.93;2.33;;;;;;;;;;4973562;28;20054;-81
2021/12/20 00:32:43;;;;;;;14.60;2.55;;;;;;;;;;4990034;28;20124;-82
2021/12/20 00:35:12;;;;;;;24.02;2.67;;;;;;;;;;4965871;28;20066;-83
2021/12/20 00:40:23;;;;;;;16.13;2.65;;;;;;;;;;4985183;28;20099;-83
2021/12/20 00:42:54;;;;;;;21.65;3.10;;;;;;;;;;4971811;28;20054;-81
2021/12/20 00:45:22;;;;;;;26.55;4.28;;;;;;;;;;4972699;28;20137;-83
2021/12/20 00:47:49;;;;;;;14.77;3.08;;;;;;;;;;4983872;28;20161;-82
2021/12/20 00:50:17;;;;;;;17.73;2.83;;;;;;;;;;4973485;28;20133;-84
2021/12/20 00:52:44;;;;;;;19.08;2.95;;;;;;;;;;4986320;28;20106;-81
2021/12/20 00:55:12;;;;;;;17.30;3.05;;;;;;;;;;4974211;28;20505;-82
2021/12/20 00:57:38;;;;;;;24.05;2.83;;;;;;;;;;4983390;28;20138;-84
2021/12/20 01:00:05;;;;;;;13.25;3.03;;;;;;;;;;4978852;28;20059;-83
2021/12/20 01:02:32;;;;;;;17.88;2.08;;;;;;;;;;4955115;28;20552;-82
2021/12/20 01:04:58;;;;;;;19.13;2.80;;;;;;;;;;4966940;28;20055;-82
2021/12/20 01:07:25;;;;;;;16.02;2.35;;;;;;;;;;4984411;28;20090;-82
2021/12/20 01:09:53;;;;;;;19.85;2.60;;;;;;;;;;4970465;28;20101;-83
2021/12/20 01:12:20;;;;;;;19.13;2.55;;;;;;;;;;4988238;28;20141;-82
2021/12/20 01:14:46;;;;;;;15.65;2.60;;;;;;;;;;4973154;28;20762;-81
2021/12/20 01:17:13;;;;;;;16.77;1.92;;;;;;;;;;4982507;28;20082;-82
2021/12/20 01:19:39;;;;;;;12.80;1.92;;;;;;;;;;4990161;28;20057;-84
2021/12/20 01:22:06;;;;;;;21.88;2.97;;;;;;;;;;4971249;28;20114;-82
2021/12/20 01:24:33;;;;;;;13.65;1.88;;;;;;;;;;4972000;28;20063;-83
2021/12/20 01:26:59;;;;;;;19.10;2.45;;;;;;;;;;4980551;28;20760;-82
2021/12/20 01:29:25;;;;;;;16.75;2.10;;;;;;;;;;4977741;28;20086;-82
2021/12/20 01:31:52;;;;;;;19.95;2.38;;;;;;;;;;4987952;28;20134;-83
2021/12/20 01:34:18;;;;;;;17.25;1.92;;;;;;;;;;4983603;28;20117;-83
2021/12/20 01:36:44;;;;;;;22.25;2.05;;;;;;;;;;4971640;28;20089;-82
2021/12/20 01:39:11;;;;;;;18.17;2.10;;;;;;;;;;4986621;28;20059;-82
2021/12/20 01:41:38;;;;;;;15.00;2.25;;;;;;;;;;4971785;28;20203;-82
2021/12/20 01:44:05;;;;;;;27.60;3.13;;;;;;;;;;4990265;28;20062;-83
2021/12/20 01:46:32;;;;;;;17.70;2.70;;;;;;;;;;4977884;28;20110;-83
2021/12/20 01:49:00;;;;;;;16.58;2.80;;;;;;;;;;5009530;28;20486;-83
2021/12/20 01:53:57;;;;;;;21.77;2.72;;;;;;;;;;4988438;28;20497;-83
2021/12/20 01:56:23;;;;;;;17.92;2.45;;;;;;;;;;4967497;28;20134;-83
2021/12/20 01:58:50;;;;;;;19.25;2.60;;;;;;;;;;4986949;28;20078;-83
2021/12/20 02:03:46;;;;;;;21.17;2.45;;;;;;;;;;4988267;28;20575;-82
2021/12/20 02:06:38;;;;;;;19.33;2.03;;;;;;;;;;4982452;28;20520;-82
2021/12/20 02:09:02;;;;;;;19.45;3.33;;;;;;;;;;4980433;28;20640;-83
2021/12/20 02:11:29;;;;;;;13.77;1.92;;;;;;;;;;4985731;28;20059;-82
2021/12/20 02:13:56;;;;;;;17.80;3.17;;;;;;;;;;4961753;28;20578;-84
2021/12/20 02:16:22;;;;;;;17.40;3.38;;;;;;;;;;4989375;28;20089;-82
2021/12/20 02:18:49;;;;;;;15.88;2.08;;;;;;;;;;4968774;28;20130;-82
2021/12/20 02:21:15;;;;;;;14.20;2.15;;;;;;;;;;4983692;28;20781;-84
2021/12/20 02:23:42;;;;;;;18.48;2.28;;;;;;;;;;4981778;28;20090;-81
2021/12/20 02:26:11;;;;;;;17.73;2.65;;;;;;;;;;4962550;28;20139;-82
2021/12/20 02:28:43;;;;;;;20.77;2.15;;;;;;;;;;4971656;28;20054;-83
2021/12/20 02:39:10;;;;;;;18.90;2.67;;;;;;;;;;4985077;28;20133;-83
2021/12/20 02:41:36;;;;;;;21.25;2.33;;;;;;;;;;4962980;28;20050;-83
2021/12/20 02:44:05;;;;;;;15.05;2.30;;;;;;;;;;4962623;28;20058;-83
2021/12/20 02:49:02;;;;;;;;;;;;;;;;;;4981795;28;20059;-83
2021/12/20 02:51:29;;;;;;;18.52;2.38;;;;;;;;;;4985431;28;45202;-82
2021/12/20 02:53:58;;;;;;;21.60;2.45;;;;;;;;;;4963655;28;20058;-82
2021/12/20 02:56:24;;;;;;;15.20;2.63;;;;;;;;;;4971969;28;20095;-82
2021/12/20 02:58:51;;;;;;;16.85;2.00;;;;;;;;;;4969790;28;20055;-82
2021/12/20 03:01:17;;;;;;;18.15;2.33;;;;;;;;;;4980148;28;20521;-82
2021/12/20 03:03:44;;;;;;;15.93;2.28;;;;;;;;;;4980369;28;20109;-81
2021/12/20 03:06:12;;;;;;;15.23;2.20;;;;;;;;;;4970961;28;20142;-82
2021/12/20 03:08:40;;;;;;;17.70;2.22;;;;;;;;;;4970437;28;20054;-82
2021/12/20 03:11:06;;;;;;;20.67;2.60;;;;;;;;;;4987648;28;20058;-81
2021/12/20 03:13:32;;;;;;;21.52;2.50;;;;;;;;;;4969325;28;20047;-82
2021/12/20 03:15:59;;;;;;;24.23;2.47;;;;;;;;;;4968181;28;20514;-82
2021/12/20 03:18:25;;;;;;;15.00;1.70;;;;;;;;;;4969991;28;20050;-82
2021/12/20 03:20:51;;;;;;;23.02;2.63;;;;;;;;;;4969786;28;20110;-82
2021/12/20 03:23:18;;;;;;;12.00;2.05;;;;;;;;;;4979867;28;20114;-82
2021/12/20 03:25:44;;;;;;;21.30;2.60;;;;;;;;;;4969490;28;20072;-82
2021/12/20 03:28:11;;;;;;;18.83;2.13;;;;;;;;;;4968484;28;20323;-83
2021/12/20 03:30:37;;;;;;;20.63;2.28;;;;;;;;;;4970740;28;20054;-82
2021/12/20 03:33:04;;;;;;;21.00;1.92;;;;;;;;;;4987493;28;20137;-81
2021/12/20 03:35:30;;;;;;;18.83;2.42;;;;;;;;;;4964562;28;20087;-82
2021/12/20 03:37:57;;;;;;;16.55;2.17;;;;;;;;;;4970415;28;20059;-82
2021/12/20 03:40:24;;;;;;;20.20;2.42;;;;;;;;;;4979486;28;20056;-81
2021/12/20 03:42:50;;;;;;;15.65;2.30;;;;;;;;;;4963643;28;20055;-82
2021/12/20 03:45:17;;;;;;;19.70;2.67;;;;;;;;;;4969683;28;20075;-82
2021/12/20 03:47:43;;;;;;;11.90;2.03;;;;;;;;;;4987564;28;20510;-82
2021/12/20 03:50:10;;;;;;;20.45;2.72;;;;;;;;;;4979871;28;20051;-81
2021/12/20 03:52:38;;;;;;;19.60;3.08;;;;;;;;;;4986497;28;20084;-82
2021/12/20 03:55:06;;;;;;;21.85;2.28;;;;;;;;;;4968263;28;20063;-82
2021/12/20 03:57:32;;;;;;;18.83;2.45;;;;;;;;;;4987468;28;20059;-82
2021/12/20 03:59:59;;;;;;;13.85;2.63;;;;;;;;;;4981535;28;20529;-83
2021/12/20 04:02:26;;;;;;;16.05;2.03;;;;;;;;;;4968464;28;20540;-82
2021/12/20 04:04:52;;;;;;;16.85;2.42;;;;;;;;;;4983870;28;20055;-83
2021/12/20 04:07:19;;;;;;;25.33;2.70;;;;;;;;;;4982039;28;20579;-82
2021/12/20 04:09:45;;;;;;;12.82;2.03;;;;;;;;;;4970083;28;20145;-82
2021/12/20 04:12:12;;;;;;;21.92;2.42;;;;;;;;;;4983725;28;20047;-82
2021/12/20 04:14:38;;;;;;;17.08;1.90;;;;;;;;;;4969373;28;20055;-82
2021/12/20 04:17:05;;;;;;;18.58;2.40;;;;;;;;;;4966479;28;20082;-83
2021/12/20 04:19:31;;;;;;;21.13;2.40;;;;;;;;;;4975696;28;20079;-82
2021/12/20 04:21:57;;;;;;;20.77;2.63;;;;;;;;;;4969247;28;20078;-81
2021/12/20 04:24:24;;;;;;;16.13;2.28;;;;;;;;;;4979902;28;20553;-82
2021/12/20 04:26:50;;;;;;;16.85;2.47;;;;;;;;;;4985543;28;20150;-81
2021/12/20 04:29:18;;;;;;;18.08;2.63;;;;;;;;;;4982670;28;20675;-83
2021/12/20 04:31:44;;;;;;;22.02;2.33;;;;;;;;;;4969039;28;20094;-83
2021/12/20 04:34:11;;;;;;;11.80;2.03;;;;;;;;;;4966463;28;20111;-82
2021/12/20 04:36:37;;;;;;;17.05;2.40;;;;;;;;;;4976143;28;20086;-82
2021/12/20 04:39:07;;;;;;;19.85;2.42;;;;;;;;;;4963742;28;20051;-82
2021/12/20 04:41:33;;;;;;;18.50;2.63;;;;;;;;;;4969361;28;20524;-82
2021/12/20 04:44:00;;;;;;;19.85;2.45;;;;;;;;;;4969306;28;20857;-83
2021/12/20 04:46:26;;;;;;;21.88;2.03;;;;;;;;;;4959979;28;20139;-81
2021/12/20 04:48:52;;;;;;;18.95;2.90;;;;;;;;;;4951752;28;20601;-83
2021/12/20 04:51:19;;;;;;;15.80;2.40;;;;;;;;;;4983187;28;20522;-83
2021/12/20 04:53:45;;;;;;;23.00;2.70;;;;;;;;;;4962753;28;20513;-82
2021/12/20 04:56:11;;;;;;;15.57;2.20;;;;;;;;;;4986809;28;20067;-82
2021/12/20 04:58:38;;;;;;;19.90;2.38;;;;;;;;;;4982409;28;20092;-82
2021/12/20 05:01:04;;;;;;;24.98;2.95;;;;;;;;;;4983426;28;20530;-82
2021/12/20 05:03:30;;;;;;;14.38;1.83;;;;;;;;;;4970761;28;20062;-82
2021/12/20 05:05:57;;;;;;;22.95;2.25;;;;;;;;;;4982641;28;20065;-81
2021/12/20 05:08:32;;;;;;;14.40;1.92;;;;;;;;;;4968196;28;20116;-83
2021/12/20 05:11:01;;;;;;;17.08;2.58;;;;;;;;;;4968902;28;20103;-83
2021/12/20 05:13:27;;;;;;;20.95;2.75;;;;;;;;;;4970963;28;20054;-82
2021/12/20 05:15:53;;;;;;;23.67;2.88;;;;;;;;;;4980902;28;20782;-82
2021/12/20 05:18:20;;;;;;;13.90;2.60;;;;;;;;;;4970934;28;20054;-82
2021/12/20 05:20:46;;;;;;;16.33;2.05;;;;;;;;;;4988786;28;20086;-81
2021/12/20 05:23:12;;;;;;;25.35;2.58;;;;;;;;;;4973249;28;20090;-83
2021/12/20 05:25:39;;;;;;;19.02;2.45;;;;;;;;;;4981589;28;20082;-82
2021/12/20 05:28:06;;;;;;;15.25;2.03;;;;;;;;;;4985057;28;20179;-82
2021/12/20 05:30:32;;;;;;;16.02;2.53;;;;;;;;;;4971392;28;20051;-82
2021/12/20 05:32:59;;;;;;;20.67;2.15;;;;;;;;;;4967020;28;20680;-82
2021/12/20 05:35:25;;;;;;;19.55;2.30;;;;;;;;;;4963944;28;20857;-82
2021/12/20 05:37:51;;;;;;;17.98;3.17;;;;;;;;;;4980675;28;20082;-81
2021/12/20 05:40:18;;;;;;;21.42;2.53;;;;;;;;;;4972151;28;20093;-82
2021/12/20 05:42:45;;;;;;;15.27;2.40;;;;;;;;;;4988113;28;20082;-82
2021/12/20 05:45:12;;;;;;;19.88;2.65;;;;;;;;;;4965587;28;20050;-82
2021/12/20 05:47:38;;;;;;;24.60;2.95;;;;;;;;;;4971867;28;20630;-81
2021/12/20 05:50:06;;;;;;;24.00;2.80;;;;;;;;;;4981437;28;20054;-82
2021/12/20 05:52:32;;;;;;;15.55;2.70;;;;;;;;;;4988065;28;20199;-81
2021/12/20 05:55:02;;;;;;;13.98;2.50;;;;;;;;;;4972747;28;20087;-82
2021/12/20 05:57:30;;;;;;;16.55;3.50;;;;;;;;;;4965973;28;20054;-82
2021/12/20 05:59:56;;;;;;;15.25;2.30;;;;;;;;;;4981233;28;20055;-83
2021/12/20 06:02:22;;;;;;;22.83;2.53;;;;;;;;;;4976792;28;20118;-84
2021/12/20 06:04:50;;;;;;;15.23;2.08;;;;;;;;;;4976262;28;20663;-85
2021/12/20 06:07:18;;;;;;;12.52;2.70;;;;;;;;;;4996763;28;20420;-86
2021/12/20 06:09:45;;;;;;;16.55;2.03;;;;;;;;;;4978814;28;20039;-85
2021/12/20 06:12:11;;;;;;;17.17;2.03;;;;;;;;;;4971902;28;20098;-85
2021/12/20 06:14:38;;;;;;;11.90;1.80;;;;;;;;;;4981561;28;20070;-83
2021/12/20 06:17:04;;;;;;;19.67;2.50;;;;;;;;;;4973109;28;20529;-83
2021/12/20 06:19:31;;;;;;;21.55;2.50;;;;;;;;;;4995222;28;20134;-85
2021/12/20 06:21:57;;;;;;;10.98;1.83;;;;;;;;;;4979361;28;20805;-85
2021/12/20 06:24:23;;;;;;;18.27;2.20;;;;;;;;;;4977090;28;20902;-86
2021/12/20 06:26:50;;;;;;;13.05;1.92;;;;;;;;;;4992298;28;20054;-85
2021/12/20 06:29:17;;;;;;;15.00;2.15;;;;;;;;;;4986535;28;20043;-85
2021/12/20 06:31:43;;;;;;;17.98;1.83;;;;;;;;;;5000001;28;20066;-85
2021/12/20 06:34:10;;;;;;;10.40;1.75;;;;;;;;;;4976484;28;20059;-85
2021/12/20 06:36:37;;;;;;;14.38;1.85;;;;;;;;;;4994793;28;20451;-85
2021/12/20 06:39:04;;;;;;;12.55;2.35;;;;;;;;;;4978639;28;20105;-85
2021/12/20 06:41:31;;;;;;;13.90;2.03;;;;;;;;;;4970630;28;20058;-86
2021/12/20 06:43:57;;;;;;;22.73;2.65;;;;;;;;;;4975844;28;20058;-85
2021/12/20 06:46:24;;;;;;;11.20;2.90;;;;;;;;;;4987090;28;20055;-85
2021/12/20 06:48:51;;;;;;;13.18;2.78;;;;;;;;;;4963348;28;20561;-85
2021/12/20 06:51:17;;;;;;;18.77;4.10;;;;;;;;;;4990315;28;20059;-85
2021/12/20 06:53:43;;;;;;;13.32;1.83;;;;;;;;;;4978313;28;20532;-85
2021/12/20 06:56:12;;;;;;;13.68;1.80;;;;;;;;;;4974294;28;20050;-82
2021/12/20 06:58:38;;;;;;;14.68;2.83;;;;;;;;;;4962240;28;20043;-84
2021/12/20 07:01:05;;;;;;;11.55;2.00;;;;;;;;;;4985413;28;20079;-85
2021/12/20 07:03:31;;;;;;;12.25;1.55;;;;;;;;;;4977101;28;20510;-85
2021/12/20 07:05:58;;;;;;;11.93;1.58;;;;;;;;;;4968544;28;20057;-84
2021/12/20 07:08:24;;;;;;;9.50;1.60;;;;;;;;;;4974442;28;20089;-86
2021/12/20 07:10:50;;;;;;;18.48;1.90;;;;;;;;;;4974864;28;20078;-84
2021/12/20 07:13:17;;;;;;;13.45;1.88;;;;;;;;;;4975911;28;20054;-83
2021/12/20 07:15:44;;;;;;;7.10;1.50;;;;;;;;;;4984952;28;20050;-86
2021/12/20 07:18:10;;;;;;;8.90;1.85;;;;;;;;;;4968984;28;20063;-85
2021/12/20 07:20:36;;;;;;;8.60;1.92;;;;;;;;;;4984232;28;20506;-85
2021/12/20 07:23:03;;;;;;;9.13;1.63;;;;;;;;;;4978223;28;20071;-85
2021/12/20 07:25:29;;;;;;;13.30;2.25;;;;;;;;;;4965922;28;20109;-82
2021/12/20 07:27:55;;;;;;;13.00;2.53;;;;;;;;;;4987825;28;20046;-83
2021/12/20 07:30:22;;;;;;;18.30;2.35;;;;;;;;;;4974430;28;20063;-84
2021/12/20 07:32:49;;;;;;;14.57;2.42;;;;;;;;;;4978201;28;20069;-84
2021/12/20 07:35:15;;;;;;;12.85;2.20;;;;;;;;;;4975263;28;20125;-84
2021/12/20 07:37:43;;;;;;;10.05;2.35;;;;;;;;;;4975579;28;20047;-84
2021/12/20 07:40:10;;;;;;;11.18;2.75;;;;;;;;;;4975298;28;20241;-85
2021/12/20 07:42:36;;;;;;;12.25;2.35;;;;;;;;;;4975916;28;20347;-83
2021/12/20 07:45:03;;;;;;;12.20;2.70;;;;;;;;;;4978425;28;20520;-84
2021/12/20 07:47:44;;;;;;;12.32;2.53;;;;;;;;;;4976711;28;20515;-83
2021/12/20 07:50:11;;;;;;;8.77;2.13;;;;;;;;;;4975151;28;20055;-82
2021/12/20 07:52:39;;;;;;;22.27;2.75;;;;;;;;;;4992756;28;20058;-84
2021/12/20 07:55:05;;;;;;;11.73;2.70;;;;;;;;;;4975511;28;20059;-84
2021/12/20 07:57:32;;;;;;;21.30;2.67;;;;;;;;;;4973632;28;20106;-79
2021/12/20 07:59:58;;;;;;;15.90;2.67;;;;;;;;;;4971372;28;20533;-81
2021/12/20 08:02:25;;;;;;;13.45;2.92;;;;;;;;;;4980508;28;20055;-81
2021/12/20 08:04:51;;;;;;;10.73;2.50;;;;;;;;;;4971271;28;20038;-80
2021/12/20 08:07:21;;;;;;;14.82;3.85;;;;;;;;;;4990815;28;20050;-78
2021/12/20 08:09:48;;;;;;;18.00;4.68;;;;;;;;;;4974346;28;20079;-81
2021/12/20 08:12:15;;;;;;;15.30;4.07;;;;;;;;;;4973769;28;20498;-81
2021/12/20 08:14:41;;;;;;;13.45;3.60;;;;;;;;;;4973829;28;20054;-78
2021/12/20 08:17:07;;;;;;;18.33;4.13;;;;;;;;;;4962696;28;20103;-81
2021/12/20 08:19:34;;;;;;;14.38;3.40;;;;;;;;;;4982679;28;20524;-81
2021/12/20 08:22:00;;;;;;;14.82;3.40;;;;;;;;;;4974251;28;20058;-79
2021/12/20 08:24:26;;;;;;;16.52;4.00;;;;;;;;;;4991970;28;20128;-80
2021/12/20 08:26:53;;;;;;;16.45;3.97;;;;;;;;;;4969963;28;20055;-80
2021/12/20 08:29:23;;;;;;;17.52;4.25;;;;;;;;;;4971026;28;20096;-80
2021/12/20 08:31:50;;;;;;;12.63;3.47;;;;;;;;;;4973140;28;20126;-80
2021/12/20 08:34:17;;;;;;;11.73;2.92;;;;;;;;;;4975218;28;20070;-81
2021/12/20 08:36:43;;;;;;;10.60;3.15;;;;;;;;;;4975266;28;20059;-80
2021/12/20 08:39:15;;;;;;;16.35;3.38;;;;;;;;;;4975101;28;20110;-80
2021/12/20 08:41:41;;;;;;;14.38;2.90;;;;;;;;;;4989509;28;20210;-79
2021/12/20 08:44:08;;;;;;;12.88;2.67;;;;;;;;;;4973957;28;20048;-81
2021/12/20 08:46:34;;;;;;;14.02;2.90;;;;;;;;;;4985559;28;20562;-80
2021/12/20 08:49:00;;;;;;;13.10;3.28;;;;;;;;;;4995126;28;20035;-80
2021/12/20 08:51:27;;;;;;;12.88;2.42;;;;;;;;;;4978374;28;20126;-82
2021/12/20 08:53:53;;;;;;;15.05;3.38;;;;;;;;;;4995120;28;20051;-81
2021/12/20 08:56:20;;;;;;;11.88;3.42;;;;;;;;;;4993793;28;20102;-78
2021/12/20 08:58:47;;;;;;;13.18;3.38;;;;;;;;;;4976072;28;20054;-78
2021/12/20 09:01:14;;;;;;;14.57;3.00;;;;;;;;;;4990718;28;20039;-81
2021/12/20 09:03:44;;;;;;;18.75;3.50;;;;;;;;;;4991641;28;20098;-81
2021/12/20 09:06:11;;;;;;;18.42;2.92;;;;;;;;;;4973002;28;20055;-81
2021/12/20 09:08:39;;;;;;;14.73;2.97;;;;;;;;;;4991826;28;20059;-82
2021/12/20 09:11:05;;;;;;;15.48;2.75;;;;;;;;;;4976345;28;20114;-81
2021/12/20 09:13:32;;;;;;;17.17;3.15;;;;;;;;;;4977360;28;20055;-81
2021/12/20 09:15:59;;;;;;;14.35;2.88;;;;;;;;;;4975813;28;20048;-81
2021/12/20 09:18:27;;;;;;;10.38;2.33;;;;;;;;;;4970046;28;20062;-81
2021/12/20 09:20:54;;;;;;;9.73;2.95;;;;;;;;;;4975078;28;20062;-81
2021/12/20 09:23:22;;;;;;;14.40;3.58;;;;;;;;;;4994345;28;20070;-80
2021/12/20 09:25:48;;;;;;;21.92;3.42;;;;;;;;;;4980650;28;20058;-79
2021/12/20 09:28:15;;;;;;;14.95;2.92;;;;;;;;;;4993686;28;20054;-81
2021/12/20 09:30:42;;;;;;;13.20;2.95;;;;;;;;;;4976177;28;20058;-80
2021/12/20 09:33:09;;;;;;;17.90;3.53;;;;;;;;;;4992047;28;20050;-81
2021/12/20 09:35:36;;;;;;;24.17;4.22;;;;;;;;;;4973481;28;20121;-81
2021/12/20 09:38:06;;;;;;;14.65;2.83;;;;;;;;;;4975169;28;20067;-81
2021/12/20 09:40:36;;;;;;;10.02;2.13;;;;;;;;;;4990109;28;20054;-79
2021/12/20 09:43:07;;;;;;;22.77;5.50;;;;;;;;;;4977914;28;20058;-80
2021/12/20 09:45:34;;;;;;;11.70;2.83;;;;;;;;;;4991052;28;20082;-81
2021/12/20 09:48:00;;;;;;;16.95;3.20;;;;;;;;;;4956979;28;20058;-81
2021/12/20 09:50:27;;;;;;;12.38;2.78;;;;;;;;;;4972251;28;20059;-80
2021/12/20 09:52:53;;;;;;;13.75;2.60;;;;;;;;;;4975239;28;20544;-82
2021/12/20 09:55:20;;;;;;;17.27;2.72;;;;;;;;;;4974936;28;20109;-80
2021/12/20 09:57:48;;;;;;;10.00;2.58;;;;;;;;;;4976021;28;20067;-81
2021/12/20 10:00:16;;;;;;;11.43;2.20;;;;;;;;;;4991912;28;20568;-81
2021/12/20 10:02:44;;;;;;;12.38;2.13;;;;;;;;;;4993189;28;20517;-81
2021/12/20 10:05:12;;;;;;;11.80;2.25;;;;;;;;;;4976208;28;20054;-81
2021/12/20 10:07:39;;;;;;;10.88;1.98;;;;;;;;;;4975672;28;20050;-81
2021/12/20 10:10:06;;;;;;;17.35;2.80;;;;;;;;;;4971552;28;20099;-80
2021/12/20 10:12:33;;;;;;;15.98;2.75;;;;;;;;;;4975403;28;20046;-82
2021/12/20 10:15:04;;;;;;;11.02;1.77;;;;;;;;;;4975461;28;20098;-80
2021/12/20 10:17:32;;;;;;;8.43;1.98;;;;;;;;;;4989090;28;20082;-81
2021/12/20 10:20:13;;;;;;;10.27;2.25;;;;;;;;;;4977281;28;20055;-80
2021/12/20 10:22:40;;;;;;;;;;;;;;;;;;4973190;28;20065;-79
2021/12/20 10:25:19;;;;;;;13.60;2.28;;;;;;;;;;4975966;28;43845;-80
2021/12/20 10:27:45;;;;;;;14.05;2.30;;;;;;;;;;4977764;28;20070;-80
2021/12/20 10:30:19;;;;;;;8.93;1.88;;;;;;;;;;4979913;28;20066;-81
2021/12/20 10:32:46;;;;;;;14.40;2.28;;;;;;;;;;4970679;28;20075;-81
2021/12/20 10:35:42;;;;;;;10.25;2.35;;;;;;;;;;4975281;28;20114;-82
2021/12/20 10:38:26;;;;;;;8.10;1.42;;;;;;;;;;4978015;28;20058;-81
2021/12/20 10:41:01;;;;;;;9.20;1.58;;;;;;;;;;4976246;28;20568;-82
2021/12/20 10:43:36;;;;;;;9.90;1.77;;;;;;;;;;4992026;28;20147;-79
2021/12/20 10:46:11;;;;;;;6.45;1.25;;;;;;;;;;4992603;28;20062;-82
2021/12/20 10:48:42;;;;;;;7.00;1.50;;;;;;;;;;4992666;28;20802;-82
2021/12/20 10:51:16;;;;;;;8.95;2.13;;;;;;;;;;4992886;28;20082;-82
2021/12/20 10:53:46;;;;;;;9.32;1.83;;;;;;;;;;4993319;28;20058;-81
2021/12/20 10:56:13;;;;;;;12.48;1.65;;;;;;;;;;4990452;28;20101;-83
2021/12/20 10:58:51;;;;;;;10.77;2.08;;;;;;;;;;4979371;28;20502;-81
2021/12/20 11:04:06;;;;;;;12.95;2.38;;;;;;;;;;4991744;28;20042;-81
2021/12/20 11:06:45;;;;;;;11.33;1.70;;;;;;;;;;4989812;28;20565;-81
2021/12/20 11:09:15;;;;;;;11.32;2.42;;;;;;;;;;4980919;28;20773;-81
2021/12/20 11:11:47;;;;;;;11.90;2.13;;;;;;;;;;4974140;28;20061;-81
2021/12/20 11:14:14;;;;;;;11.20;2.78;;;;;;;;;;4973570;28;20532;-80
2021/12/20 11:16:42;;;;;;;10.02;2.00;;;;;;;;;;4992568;28;20043;-81
2021/12/20 11:19:16;;;;;;;9.38;2.20;;;;;;;;;;4974605;28;20058;-81
2021/12/20 11:21:46;;;;;;;7.22;2.17;;;;;;;;;;4988065;28;20431;-81
2021/12/20 11:24:13;;;;;;;13.43;2.50;;;;;;;;;;4968622;28;20063;-81
2021/12/20 11:26:39;;;;;;;15.27;2.20;;;;;;;;;;4989956;28;20714;-78
2021/12/20 11:29:06;;;;;;;11.13;1.75;;;;;;;;;;4993905;28;20059;-81
2021/12/20 11:31:33;;;;;;;15.18;2.17;;;;;;;;;;4989168;28;20137;-81
2021/12/20 11:33:59;;;;;;;11.13;2.03;;;;;;;;;;4967882;28;20055;-81
2021/12/20 11:36:26;;;;;;;9.10;2.20;;;;;;;;;;4974382;28;20645;-79
2021/12/20 11:38:53;;;;;;;9.38;1.98;;;;;;;;;;4974036;28;20059;-81
2021/12/20 11:41:19;;;;;;;10.75;2.03;;;;;;;;;;4976525;28;20058;-80
2021/12/20 11:43:46;;;;;;;11.93;1.85;;;;;;;;;;4989154;28;20130;-81
2021/12/20 11:46:14;;;;;;;13.77;2.17;;;;;;;;;;4991247;28;20050;-81
2021/12/20 11:48:42;;;;;;;12.52;2.03;;;;;;;;;;4974975;28;20141;-81
2021/12/20 11:51:09;;;;;;;11.27;2.20;;;;;;;;;;4975540;28;20478;-81
2021/12/20 11:53:36;;;;;;;11.20;2.22;;;;;;;;;;4974435;28;20059;-81
2021/12/20 11:56:03;;;;;;;8.65;1.60;;;;;;;;;;4984855;28;20122;-81
2021/12/20 11:58:30;;;;;;;11.95;2.00;;;;;;;;;;4974422;28;20106;-80
2021/12/20 12:00:57;;;;;;;14.02;2.35;;;;;;;;;;4975518;28;20050;-82
2021/12/20 12:03:26;;;;;;;10.10;1.73;;;;;;;;;;4989977;28;20093;-80
2021/12/20 12:06:00;;;;;;;8.23;1.77;;;;;;;;;;4975583;28;20050;-81
2021/12/20 12:08:32;;;;;;;14.35;2.35;;;;;;;;;;4989249;28;20054;-80
2021/12/20 12:11:00;;;;;;;12.13;3.20;;;;;;;;;;4991312;28;20055;-80
2021/12/20 12:13:29;;;;;;;8.55;2.13;;;;;;;;;;4992407;28;20568;-81
2021/12/20 12:16:03;;;;;;;9.05;2.00;;;;;;;;;;4992557;28;20098;-82
2021/12/20 12:18:47;;;;;;;10.30;2.15;;;;;;;;;;4992548;28;20050;-82
2021/12/20 12:21:32;;;;;;;8.38;1.80;;;;;;;;;;4974112;28;20081;-81
2021/12/20 12:24:16;;;;;;;12.65;1.90;;;;;;;;;;4970795;28;20396;-80
2021/12/20 12:26:44;;;;;;;13.32;3.05;;;;;;;;;;4973782;28;20118;-80
2021/12/20 12:29:21;;;;;;;11.52;1.88;;;;;;;;;;4989304;28;20986;-80
2021/12/20 12:31:53;;;;;;;14.40;2.45;;;;;;;;;;4990853;28;20142;-81
2021/12/20 12:34:20;;;;;;;12.38;1.90;;;;;;;;;;4992980;28;20065;-81
2021/12/20 12:37:11;;;;;;;10.75;1.95;;;;;;;;;;4973407;28;20054;-79
2021/12/20 12:39:38;;;;;;;9.35;1.73;;;;;;;;;;4972833;28;21058;-81
2021/12/20 12:42:04;;;;;;;10.45;1.70;;;;;;;;;;4974594;28;20055;-81
2021/12/20 12:44:31;;;;;;;12.38;1.88;;;;;;;;;;4972684;28;20055;-81
2021/12/20 12:47:05;;;;;;;11.43;2.10;;;;;;;;;;4986384;28;20038;-80
2021/12/20 12:49:32;;;;;;;9.40;1.90;;;;;;;;;;4968285;28;20051;-80
2021/12/20 12:52:08;;;;;;;12.43;1.88;;;;;;;;;;4987939;28;20039;-82
2021/12/20 12:54:56;;;;;;;7.68;1.80;;;;;;;;;;4979386;28;20205;-80
2021/12/20 12:57:22;;;;;;;11.07;2.38;;;;;;;;;;4994376;28;20065;-82
2021/12/20 12:59:56;;;;;;;10.77;2.38;;;;;;;;;;4985292;28;20089;-81
2021/12/20 13:02:24;;;;;;;9.73;2.38;;;;;;;;;;4968377;28;20066;-79
2021/12/20 13:04:55;;;;;;;14.90;2.33;;;;;;;;;;4970828;28;20901;-80
2021/12/20 13:07:23;;;;;;;11.93;2.28;;;;;;;;;;4988371;28;20055;-81
2021/12/20 13:09:51;;;;;;;12.18;2.05;;;;;;;;;;4987404;28;20059;-79
2021/12/20 13:12:24;;;;;;;14.30;2.05;;;;;;;;;;4987333;28;20418;-79
2021/12/20 13:15:33;;;;;;;12.38;1.88;;;;;;;;;;4972763;28;20055;-79
2021/12/20 13:18:07;;;;;;;12.10;2.17;;;;;;;;;;4970376;28;20652;-79
2021/12/20 13:20:37;;;;;;;12.48;1.90;;;;;;;;;;4966647;28;20054;-79
2021/12/20 13:23:03;;;;;;;11.38;2.53;;;;;;;;;;4987857;28;20114;-77
2021/12/20 13:25:47;;;;;;;13.32;2.13;;;;;;;;;;4986591;28;20067;-80
2021/12/20 13:28:25;;;;;;;14.30;2.05;;;;;;;;;;4977861;28;20589;-82
2021/12/20 13:31:02;;;;;;;16.70;2.47;;;;;;;;;;4990819;28;20050;-79
2021/12/20 13:33:30;;;;;;;11.82;1.65;;;;;;;;;;4991491;28;20059;-80
2021/12/20 13:35:59;;;;;;;18.52;2.38;;;;;;;;;;4991423;28;20434;-80
2021/12/20 13:38:28;;;;;;;10.07;2.00;;;;;;;;;;4987404;28;20702;-82
2021/12/20 13:41:06;;;;;;;14.77;2.33;;;;;;;;;;4976155;28;20063;-80
2021/12/20 13:43:36;;;;;;;13.25;1.98;;;;;;;;;;4975693;28;20219;-79
2021/12/20 13:46:26;;;;;;;9.48;2.20;;;;;;;;;;4975694;28;20066;-79
2021/12/20 13:48:55;;;;;;;10.48;2.38;;;;;;;;;;4992392;28;20047;-82
2021/12/20 13:51:34;;;;;;;9.02;2.35;;;;;;;;;;4985160;28;20506;-81
2021/12/20 13:54:14;;;;;;;11.60;2.13;;;;;;;;;;4965396;28;20106;-81
2021/12/20 13:56:44;;;;;;;15.73;2.40;;;;;;;;;;4986854;28;20058;-80
2021/12/20 13:59:11;;;;;;;9.15;2.33;;;;;;;;;;4985153;28;20110;-81
2021/12/20 14:01:37;;;;;;;9.10;2.00;;;;;;;;;;4970969;28;20507;-80
2021/12/20 14:04:04;;;;;;;12.23;2.20;;;;;;;;;;4993055;28;20101;-81
2021/12/20 14:06:34;;;;;;;9.80;1.98;;;;;;;;;;4976593;28;20054;-81
2021/12/20 14:09:10;;;;;;;9.05;1.95;;;;;;;;;;4975551;28;20158;-82
2021/12/20 14:11:36;;;;;;;8.00;2.38;;;;;;;;;;4993297;28;20055;-81
2021/12/20 14:14:10;;;;;;;20.35;2.88;;;;;;;;;;4976832;28;20533;-82
2021/12/20 14:16:59;;;;;;;8.00;2.30;;;;;;;;;;4983432;28;20051;-79
2021/12/20 14:19:44;;;;;;;11.25;2.15;;;;;;;;;;4989560;28;20070;-81
2021/12/20 14:22:10;;;;;;;14.13;2.22;;;;;;;;;;4991583;28;20055;-80
2021/12/20 14:24:40;;;;;;;7.75;1.75;;;;;;;;;;4993587;28;20050;-81
2021/12/20 14:27:06;;;;;;;11.13;1.88;;;;;;;;;;4993669;28;20054;-80
2021/12/20 14:29:33;;;;;;;12.55;2.70;;;;;;;;;;4976810;28;20090;-79
2021/12/20 14:32:00;;;;;;;11.65;2.00;;;;;;;;;;4997394;28;20059;-80
2021/12/20 14:34:31;;;;;;;11.45;1.92;;;;;;;;;;4976029;28;20332;-80
2021/12/20 14:37:06;;;;;;;12.38;2.58;;;;;;;;;;4973641;28;20059;-81
2021/12/20 14:39:40;;;;;;;12.15;2.25;;;;;;;;;;4984909;28;20110;-81
2021/12/20 14:42:07;;;;;;;12.82;1.92;;;;;;;;;;4975051;28;20051;-81
2021/12/20 14:44:43;;;;;;;9.55;1.98;;;;;;;;;;4974802;28;20057;-80
2021/12/20 14:49:37;;;;;;;15.05;2.47;;;;;;;;;;4988130;28;20070;-81
2021/12/20 14:52:26;;;;;;;16.08;2.70;;;;;;;;;;4991325;28;20066;-81
2021/12/20 14:54:54;;;;;;;15.82;2.92;;;;;;;;;;4976374;28;20218;-80
2021/12/20 14:57:33;;;;;;;14.52;2.40;;;;;;;;;;4975506;28;20051;-81
2021/12/20 15:00:00;;;;;;;15.02;3.03;;;;;;;;;;4990015;28;20669;-80
2021/12/20 15:02:33;;;;;;;15.98;2.90;;;;;;;;;;4975805;28;20518;-79